sensor_id;sensor_type;location;lat;lon;timestamp;P1;P2;P0
34240;PMS7003;20503;50.200;19.508;2024-03-25T00:00:22;27;22;14
34240;PMS7003;20503;50.200;19.508;2024-03-25T00:01:30;25;21;13
34240;PMS7003;20503;50.200;19.508;2024-03-25T00:02:31;25;21;13
34240;PMS7003;20503;50.200;19.508;2024-03-25T00:03:32;29;22;14
34240;PMS7003;20503;50.200;19.508;2024-03-25T00:04:35;31;23;14
34240;PMS7003;20503;50.200;19.508;2024-03-25T00:05:36;31;23;14
34240;PMS7003;20503;50.200;19.508;2024-03-25T00:06:37;33;22;13
34240;PMS7003;20503;50.200;19.508;2024-03-25T00:07:39;33;22;13
34240;PMS7003;20503;50.200;19.508;2024-03-25T00:08:40;27;22;14
34240;PMS7003;20503;50.200;19.508;2024-03-25T00:09:43;27;22;14
34240;PMS7003;20503;50.200;19.508;2024-03-25T00:10:44;29;22;15
34240;PMS7003;20503;50.200;19.508;2024-03-25T00:11:45;33;25;14
34240;PMS7003;20503;50.200;19.508;2024-03-25T00:12:47;33;25;14
34240;PMS7003;20503;50.200;19.508;2024-03-25T00:13:55;29;20;13
34240;PMS7003;20503;50.200;19.508;2024-03-25T00:15:24;23;17;11
34240;PMS7003;20503;50.200;19.508;2024-03-25T00:16:26;21;18;12
34240;PMS7003;20503;50.200;19.508;2024-03-25T00:17:45;25;17;11
34240;PMS7003;20503;50.200;19.508;2024-03-25T00:18:47;24;18;11
34240;PMS7003;20503;50.200;19.508;2024-03-25T00:19:49;24;17;10
34240;PMS7003;20503;50.200;19.508;2024-03-25T00:20:56;17;13;9
34240;PMS7003;20503;50.200;19.508;2024-03-25T00:22:05;20;14;9
34240;PMS7003;20503;50.200;19.508;2024-03-25T00:23:14;18;11;7
34240;PMS7003;20503;50.200;19.508;2024-03-25T00:24:16;18;11;7
34240;PMS7003;20503;50.200;19.508;2024-03-25T00:25:17;19;12;8
34240;PMS7003;20503;50.200;19.508;2024-03-25T00:26:18;15;12;8
34240;PMS7003;20503;50.200;19.508;2024-03-25T00:27:19;15;12;8
34240;PMS7003;20503;50.200;19.508;2024-03-25T00:28:21;15;11;8
34240;PMS7003;20503;50.200;19.508;2024-03-25T00:29:22;15;11;8
34240;PMS7003;20503;50.200;19.508;2024-03-25T00:30:23;16;12;8
34240;PMS7003;20503;50.200;19.508;2024-03-25T00:31:25;16;12;9
34240;PMS7003;20503;50.200;19.508;2024-03-25T00:32:42;20;12;8
34240;PMS7003;20503;50.200;19.508;2024-03-25T00:33:51;15;12;8
34240;PMS7003;20503;50.200;19.508;2024-03-25T00:34:52;14;10;7
34240;PMS7003;20503;50.200;19.508;2024-03-25T00:35:53;15;12;8
34240;PMS7003;20503;50.200;19.508;2024-03-25T00:36:55;15;12;8
34240;PMS7003;20503;50.200;19.508;2024-03-25T00:37:56;19;14;9
34240;PMS7003;20503;50.200;19.508;2024-03-25T00:38:57;17;13;8
34240;PMS7003;20503;50.200;19.508;2024-03-25T00:39:59;17;13;8
34240;PMS7003;20503;50.200;19.508;2024-03-25T00:41:01;13;9;7
34240;PMS7003;20503;50.200;19.508;2024-03-25T00:42:02;12;9;7
34240;PMS7003;20503;50.200;19.508;2024-03-25T00:43:04;17;11;8
34240;PMS7003;20503;50.200;19.508;2024-03-25T00:44:06;14;10;7
34240;PMS7003;20503;50.200;19.508;2024-03-25T00:45:09;11;8;6
34240;PMS7003;20503;50.200;19.508;2024-03-25T00:46:10;11;8;6
34240;PMS7003;20503;50.200;19.508;2024-03-25T00:47:12;10;9;7
34240;PMS7003;20503;50.200;19.508;2024-03-25T00:48:14;10;9;7
34240;PMS7003;20503;50.200;19.508;2024-03-25T00:49:15;11;8;6
34240;PMS7003;20503;50.200;19.508;2024-03-25T00:50:16;12;9;7
34240;PMS7003;20503;50.200;19.508;2024-03-25T00:51:17;12;8;6
34240;PMS7003;20503;50.200;19.508;2024-03-25T00:52:34;14;11;7
34240;PMS7003;20503;50.200;19.508;2024-03-25T00:53:36;13;11;7
34240;PMS7003;20503;50.200;19.508;2024-03-25T00:54:38;13;11;7
34240;PMS7003;20503;50.200;19.508;2024-03-25T00:55:39;15;9;6
34240;PMS7003;20503;50.200;19.508;2024-03-25T00:56:40;12;9;6
34240;PMS7003;20503;50.200;19.508;2024-03-25T00:57:42;12;9;6
34240;PMS7003;20503;50.200;19.508;2024-03-25T00:58:44;14;10;7
34240;PMS7003;20503;50.200;19.508;2024-03-25T01:00:14;12;9;6
34240;PMS7003;20503;50.200;19.508;2024-03-25T01:01:17;11;9;5
34240;PMS7003;20503;50.200;19.508;2024-03-25T01:02:18;11;9;5
34240;PMS7003;20503;50.200;19.508;2024-03-25T01:03:20;10;7;5
34240;PMS7003;20503;50.200;19.508;2024-03-25T01:04:22;11;8;5
34240;PMS7003;20503;50.200;19.508;2024-03-25T01:05:24;11;8;5
34240;PMS7003;20503;50.200;19.508;2024-03-25T01:06:25;9;8;5
34240;PMS7003;20503;50.200;19.508;2024-03-25T01:07:26;9;8;5
34240;PMS7003;20503;50.200;19.508;2024-03-25T01:08:28;10;7;5
34240;PMS7003;20503;50.200;19.508;2024-03-25T01:09:30;8;7;5
34240;PMS7003;20503;50.200;19.508;2024-03-25T01:10:33;8;7;5
34240;PMS7003;20503;50.200;19.508;2024-03-25T01:11:34;9;7;5
34240;PMS7003;20503;50.200;19.508;2024-03-25T01:12:36;9;7;5
34240;PMS7003;20503;50.200;19.508;2024-03-25T01:13:37;10;7;5
34240;PMS7003;20503;50.200;19.508;2024-03-25T01:14:39;9;6;4
34240;PMS7003;20503;50.200;19.508;2024-03-25T01:15:41;9;6;5
34240;PMS7003;20503;50.200;19.508;2024-03-25T01:16:43;9;7;5
34240;PMS7003;20503;50.200;19.508;2024-03-25T01:17:44;10;7;5
34240;PMS7003;20503;50.200;19.508;2024-03-25T01:18:45;10;7;5
34240;PMS7003;20503;50.200;19.508;2024-03-25T01:19:46;8;6;5
34240;PMS7003;20503;50.200;19.508;2024-03-25T01:20:48;10;7;5
34240;PMS7003;20503;50.200;19.508;2024-03-25T01:21:50;10;7;5
34240;PMS7003;20503;50.200;19.508;2024-03-25T01:22:51;9;7;5
34240;PMS7003;20503;50.200;19.508;2024-03-25T01:23:53;9;7;5
34240;PMS7003;20503;50.200;19.508;2024-03-25T01:24:55;9;7;5
34240;PMS7003;20503;50.200;19.508;2024-03-25T01:25:56;8;6;4
34240;PMS7003;20503;50.200;19.508;2024-03-25T01:26:57;8;6;4
34240;PMS7003;20503;50.200;19.508;2024-03-25T01:27:59;10;7;5
34240;PMS7003;20503;50.200;19.508;2024-03-25T01:29:00;11;7;5
34240;PMS7003;20503;50.200;19.508;2024-03-25T01:30:01;6;6;5
34240;PMS7003;20503;50.200;19.508;2024-03-25T01:31:04;8;6;5
34240;PMS7003;20503;50.200;19.508;2024-03-25T01:32:07;8;6;5
34240;PMS7003;20503;50.200;19.508;2024-03-25T01:33:08;9;6;5
34240;PMS7003;20503;50.200;19.508;2024-03-25T01:34:10;9;6;5
34240;PMS7003;20503;50.200;19.508;2024-03-25T01:35:11;9;7;5
34240;PMS7003;20503;50.200;19.508;2024-03-25T01:36:13;10;8;6
34240;PMS7003;20503;50.200;19.508;2024-03-25T01:37:19;10;8;6
34240;PMS7003;20503;50.200;19.508;2024-03-25T01:38:20;10;8;5
34240;PMS7003;20503;50.200;19.508;2024-03-25T01:39:22;10;9;6
34240;PMS7003;20503;50.200;19.508;2024-03-25T01:40:25;10;8;6
34240;PMS7003;20503;50.200;19.508;2024-03-25T01:41:40;9;8;6
34240;PMS7003;20503;50.200;19.508;2024-03-25T01:42:41;12;9;6
34240;PMS7003;20503;50.200;19.508;2024-03-25T01:43:45;12;9;6
34240;PMS7003;20503;50.200;19.508;2024-03-25T01:44:46;13;8;5
34240;PMS7003;20503;50.200;19.508;2024-03-25T01:45:49;10;7;5
34240;PMS7003;20503;50.200;19.508;2024-03-25T01:46:55;10;7;5
34240;PMS7003;20503;50.200;19.508;2024-03-25T01:47:57;9;7;5
34240;PMS7003;20503;50.200;19.508;2024-03-25T01:49:03;9;7;5
34240;PMS7003;20503;50.200;19.508;2024-03-25T01:50:05;12;8;5
34240;PMS7003;20503;50.200;19.508;2024-03-25T01:51:07;10;7;5
34240;PMS7003;20503;50.200;19.508;2024-03-25T01:52:12;10;7;5
34240;PMS7003;20503;50.200;19.508;2024-03-25T01:53:16;10;8;6
34240;PMS7003;20503;50.200;19.508;2024-03-25T01:54:20;10;8;6
34240;PMS7003;20503;50.200;19.508;2024-03-25T01:55:26;11;7;5
34240;PMS7003;20503;50.200;19.508;2024-03-25T01:56:31;9;6;4
34240;PMS7003;20503;50.200;19.508;2024-03-25T01:57:36;9;6;4
34240;PMS7003;20503;50.200;19.508;2024-03-25T01:58:40;10;7;5
34240;PMS7003;20503;50.200;19.508;2024-03-25T02:00:02;10;7;5
34240;PMS7003;20503;50.200;19.508;2024-03-25T02:01:06;7;7;5
34240;PMS7003;20503;50.200;19.508;2024-03-25T02:02:14;9;6;4
34240;PMS7003;20503;50.200;19.508;2024-03-25T02:03:17;9;6;4
34240;PMS7003;20503;50.200;19.508;2024-03-25T02:04:21;9;6;4
34240;PMS7003;20503;50.200;19.508;2024-03-25T02:05:24;9;6;4
34240;PMS7003;20503;50.200;19.508;2024-03-25T02:06:26;8;6;4
34240;PMS7003;20503;50.200;19.508;2024-03-25T02:07:29;6;5;4
34240;PMS7003;20503;50.200;19.508;2024-03-25T02:08:34;9;5;4
34240;PMS7003;20503;50.200;19.508;2024-03-25T02:09:37;6;5;4
34240;PMS7003;20503;50.200;19.508;2024-03-25T02:10:42;6;5;4
34240;PMS7003;20503;50.200;19.508;2024-03-25T02:11:45;8;5;4
34240;PMS7003;20503;50.200;19.508;2024-03-25T02:12:48;8;5;4
34240;PMS7003;20503;50.200;19.508;2024-03-25T02:13:51;8;5;3
34240;PMS7003;20503;50.200;19.508;2024-03-25T02:14:54;6;5;4
34240;PMS7003;20503;50.200;19.508;2024-03-25T02:15:58;6;5;4
34240;PMS7003;20503;50.200;19.508;2024-03-25T02:17:00;7;5;4
34240;PMS7003;20503;50.200;19.508;2024-03-25T02:18:06;7;5;4
34240;PMS7003;20503;50.200;19.508;2024-03-25T02:19:11;7;5;4
34240;PMS7003;20503;50.200;19.508;2024-03-25T02:20:16;9;5;4
34240;PMS7003;20503;50.200;19.508;2024-03-25T02:21:19;9;4;4
34240;PMS7003;20503;50.200;19.508;2024-03-25T02:22:21;9;4;4
34240;PMS7003;20503;50.200;19.508;2024-03-25T02:23:24;5;5;4
34240;PMS7003;20503;50.200;19.508;2024-03-25T02:24:28;5;5;4
34240;PMS7003;20503;50.200;19.508;2024-03-25T02:25:34;8;5;4
34240;PMS7003;20503;50.200;19.508;2024-03-25T02:26:37;8;5;4
34240;PMS7003;20503;50.200;19.508;2024-03-25T02:27:41;6;5;3
34240;PMS7003;20503;50.200;19.508;2024-03-25T02:28:44;6;5;3
34240;PMS7003;20503;50.200;19.508;2024-03-25T02:29:47;7;5;3
34240;PMS7003;20503;50.200;19.508;2024-03-25T02:30:50;7;5;4
34240;PMS7003;20503;50.200;19.508;2024-03-25T02:32:13;8;6;5
34240;PMS7003;20503;50.200;19.508;2024-03-25T02:33:18;8;6;5
34240;PMS7003;20503;50.200;19.508;2024-03-25T02:34:23;8;6;5
34240;PMS7003;20503;50.200;19.508;2024-03-25T02:35:27;6;6;4
34240;PMS7003;20503;50.200;19.508;2024-03-25T02:36:30;10;6;4
34240;PMS7003;20503;50.200;19.508;2024-03-25T02:37:34;10;6;4
34240;PMS7003;20503;50.200;19.508;2024-03-25T02:38:36;10;6;5
34240;PMS7003;20503;50.200;19.508;2024-03-25T02:39:40;10;6;5
34240;PMS7003;20503;50.200;19.508;2024-03-25T02:40:45;9;6;5
34240;PMS7003;20503;50.200;19.508;2024-03-25T02:41:48;10;7;4
34240;PMS7003;20503;50.200;19.508;2024-03-25T02:42:52;9;7;5
34240;PMS7003;20503;50.200;19.508;2024-03-25T02:43:56;9;7;5
34240;PMS7003;20503;50.200;19.508;2024-03-25T02:44:59;9;7;5
34240;PMS7003;20503;50.200;19.508;2024-03-25T02:46:02;9;7;5
34240;PMS7003;20503;50.200;19.508;2024-03-25T02:47:05;10;7;5
34240;PMS7003;20503;50.200;19.508;2024-03-25T02:48:07;9;7;4
34240;PMS7003;20503;50.200;19.508;2024-03-25T02:49:08;9;5;4
34240;PMS7003;20503;50.200;19.508;2024-03-25T02:50:10;9;6;5
34240;PMS7003;20503;50.200;19.508;2024-03-25T02:51:11;9;6;5
34240;PMS7003;20503;50.200;19.508;2024-03-25T02:52:12;10;6;5
34240;PMS7003;20503;50.200;19.508;2024-03-25T02:53:14;10;6;5
34240;PMS7003;20503;50.200;19.508;2024-03-25T02:54:15;10;6;5
34240;PMS7003;20503;50.200;19.508;2024-03-25T02:55:17;8;6;5
34240;PMS7003;20503;50.200;19.508;2024-03-25T02:56:18;8;6;5
34240;PMS7003;20503;50.200;19.508;2024-03-25T02:57:20;10;7;5
34240;PMS7003;20503;50.200;19.508;2024-03-25T02:58:22;10;7;5
34240;PMS7003;20503;50.200;19.508;2024-03-25T02:59:33;10;7;5
34240;PMS7003;20503;50.200;19.508;2024-03-25T03:00:34;11;7;5
34240;PMS7003;20503;50.200;19.508;2024-03-25T03:01:35;11;7;5
34240;PMS7003;20503;50.200;19.508;2024-03-25T03:02:37;10;8;6
34240;PMS7003;20503;50.200;19.508;2024-03-25T03:03:39;10;8;5
34240;PMS7003;20503;50.200;19.508;2024-03-25T03:04:40;10;8;6
34240;PMS7003;20503;50.200;19.508;2024-03-25T03:05:42;12;8;6
34240;PMS7003;20503;50.200;19.508;2024-03-25T03:06:43;9;8;5
34240;PMS7003;20503;50.200;19.508;2024-03-25T03:07:44;9;8;5
34240;PMS7003;20503;50.200;19.508;2024-03-25T03:08:45;11;8;6
34240;PMS7003;20503;50.200;19.508;2024-03-25T03:09:47;11;8;6
34240;PMS7003;20503;50.200;19.508;2024-03-25T03:10:48;12;8;6
34240;PMS7003;20503;50.200;19.508;2024-03-25T03:11:49;10;8;6
34240;PMS7003;20503;50.200;19.508;2024-03-25T03:12:50;10;8;5
34240;PMS7003;20503;50.200;19.508;2024-03-25T03:13:52;10;8;5
34240;PMS7003;20503;50.200;19.508;2024-03-25T03:15:02;10;7;5
34240;PMS7003;20503;50.200;19.508;2024-03-25T03:16:05;9;6;4
34240;PMS7003;20503;50.200;19.508;2024-03-25T03:17:06;12;6;5
34240;PMS7003;20503;50.200;19.508;2024-03-25T03:18:07;12;6;5
34240;PMS7003;20503;50.200;19.508;2024-03-25T03:19:09;10;7;5
34240;PMS7003;20503;50.200;19.508;2024-03-25T03:20:11;9;4;4
34240;PMS7003;20503;50.200;19.508;2024-03-25T03:21:12;9;5;4
34240;PMS7003;20503;50.200;19.508;2024-03-25T03:22:13;9;5;4
34240;PMS7003;20503;50.200;19.508;2024-03-25T03:23:15;9;5;4
34240;PMS7003;20503;50.200;19.508;2024-03-25T03:24:28;9;7;5
34240;PMS7003;20503;50.200;19.508;2024-03-25T03:25:30;9;7;5
34240;PMS7003;20503;50.200;19.508;2024-03-25T03:26:32;7;6;5
34240;PMS7003;20503;50.200;19.508;2024-03-25T03:27:34;9;5;4
34240;PMS7003;20503;50.200;19.508;2024-03-25T03:28:35;6;5;4
34240;PMS7003;20503;50.200;19.508;2024-03-25T03:29:37;6;5;4
34240;PMS7003;20503;50.200;19.508;2024-03-25T03:30:38;7;5;4
34240;PMS7003;20503;50.200;19.508;2024-03-25T03:31:39;8;6;4
34240;PMS7003;20503;50.200;19.508;2024-03-25T03:33:07;8;6;4
34240;PMS7003;20503;50.200;19.508;2024-03-25T03:34:08;8;6;4
34240;PMS7003;20503;50.200;19.508;2024-03-25T03:35:09;8;5;5
34240;PMS7003;20503;50.200;19.508;2024-03-25T03:36:11;7;5;4
34240;PMS7003;20503;50.200;19.508;2024-03-25T03:37:16;7;5;4
34240;PMS7003;20503;50.200;19.508;2024-03-25T03:38:18;10;6;5
34240;PMS7003;20503;50.200;19.508;2024-03-25T03:39:21;10;6;5
34240;PMS7003;20503;50.200;19.508;2024-03-25T03:40:24;10;7;5
34240;PMS7003;20503;50.200;19.508;2024-03-25T03:41:27;10;7;5
34240;PMS7003;20503;50.200;19.508;2024-03-25T03:42:31;9;7;4
34240;PMS7003;20503;50.200;19.508;2024-03-25T03:43:35;10;7;5
34240;PMS7003;20503;50.200;19.508;2024-03-25T03:44:39;8;7;4
34240;PMS7003;20503;50.200;19.508;2024-03-25T03:45:42;9;7;5
34240;PMS7003;20503;50.200;19.508;2024-03-25T03:46:45;10;7;5
34240;PMS7003;20503;50.200;19.508;2024-03-25T03:48:08;12;8;6
34240;PMS7003;20503;50.200;19.508;2024-03-25T03:49:26;14;10;6
34240;PMS7003;20503;50.200;19.508;2024-03-25T03:50:30;14;10;6
34240;PMS7003;20503;50.200;19.508;2024-03-25T03:51:34;11;8;6
34240;PMS7003;20503;50.200;19.508;2024-03-25T03:52:36;11;8;6
34240;PMS7003;20503;50.200;19.508;2024-03-25T03:53:39;12;8;5
34240;PMS7003;20503;50.200;19.508;2024-03-25T03:54:41;10;7;5
34240;PMS7003;20503;50.200;19.508;2024-03-25T03:55:43;12;8;6
34240;PMS7003;20503;50.200;19.508;2024-03-25T03:56:56;11;7;5
34240;PMS7003;20503;50.200;19.508;2024-03-25T03:58:00;11;7;5
34240;PMS7003;20503;50.200;19.508;2024-03-25T03:59:03;10;8;6
34240;PMS7003;20503;50.200;19.508;2024-03-25T04:00:06;9;7;5
34240;PMS7003;20503;50.200;19.508;2024-03-25T04:01:16;8;7;5
34240;PMS7003;20503;50.200;19.508;2024-03-25T04:02:21;8;7;5
34240;PMS7003;20503;50.200;19.508;2024-03-25T04:03:25;10;7;5
34240;PMS7003;20503;50.200;19.508;2024-03-25T04:04:47;8;6;5
34240;PMS7003;20503;50.200;19.508;2024-03-25T04:05:57;9;7;5
34240;PMS7003;20503;50.200;19.508;2024-03-25T04:07:00;9;7;5
34240;PMS7003;20503;50.200;19.508;2024-03-25T04:08:04;9;7;5
34240;PMS7003;20503;50.200;19.508;2024-03-25T04:09:07;10;6;5
34240;PMS7003;20503;50.200;19.508;2024-03-25T04:10:12;11;6;4
34240;PMS7003;20503;50.200;19.508;2024-03-25T04:11:17;11;6;4
34240;PMS7003;20503;50.200;19.508;2024-03-25T04:12:18;10;7;5
34240;PMS7003;20503;50.200;19.508;2024-03-25T04:13:38;9;6;4
34240;PMS7003;20503;50.200;19.508;2024-03-25T04:14:40;9;6;4
34240;PMS7003;20503;50.200;19.508;2024-03-25T04:16:07;8;7;5
34240;PMS7003;20503;50.200;19.508;2024-03-25T04:17:10;8;7;4
34240;PMS7003;20503;50.200;19.508;2024-03-25T04:18:13;9;6;4
34240;PMS7003;20503;50.200;19.508;2024-03-25T04:19:15;13;7;5
34240;PMS7003;20503;50.200;19.508;2024-03-25T04:20:42;10;6;5
34240;PMS7003;20503;50.200;19.508;2024-03-25T04:22:01;18;11;7
34240;PMS7003;20503;50.200;19.508;2024-03-25T04:23:04;18;11;7
34240;PMS7003;20503;50.200;19.508;2024-03-25T04:24:08;14;10;7
34240;PMS7003;20503;50.200;19.508;2024-03-25T04:25:10;13;10;6
34240;PMS7003;20503;50.200;19.508;2024-03-25T04:26:12;13;10;6
34240;PMS7003;20503;50.200;19.508;2024-03-25T04:27:14;18;12;8
34240;PMS7003;20503;50.200;19.508;2024-03-25T04:28:15;18;12;8
34240;PMS7003;20503;50.200;19.508;2024-03-25T04:29:17;15;11;7
34240;PMS7003;20503;50.200;19.508;2024-03-25T04:30:18;10;8;5
34240;PMS7003;20503;50.200;19.508;2024-03-25T04:31:20;8;6;4
34240;PMS7003;20503;50.200;19.508;2024-03-25T04:32:21;11;7;5
34240;PMS7003;20503;50.200;19.508;2024-03-25T04:33:23;11;7;5
34240;PMS7003;20503;50.200;19.508;2024-03-25T04:34:24;11;8;6
34240;PMS7003;20503;50.200;19.508;2024-03-25T04:35:51;12;8;5
34240;PMS7003;20503;50.200;19.508;2024-03-25T04:36:53;11;8;5
34240;PMS7003;20503;50.200;19.508;2024-03-25T04:37:54;11;8;5
34240;PMS7003;20503;50.200;19.508;2024-03-25T04:38:58;8;7;6
34240;PMS7003;20503;50.200;19.508;2024-03-25T04:39:59;12;8;5
34240;PMS7003;20503;50.200;19.508;2024-03-25T04:41:01;12;8;5
34240;PMS7003;20503;50.200;19.508;2024-03-25T04:42:02;12;8;6
34240;PMS7003;20503;50.200;19.508;2024-03-25T04:43:04;12;8;5
34240;PMS7003;20503;50.200;19.508;2024-03-25T04:44:06;10;9;6
34240;PMS7003;20503;50.200;19.508;2024-03-25T04:45:07;10;9;6
34240;PMS7003;20503;50.200;19.508;2024-03-25T04:46:09;14;11;7
34240;PMS7003;20503;50.200;19.508;2024-03-25T04:47:11;14;11;7
34240;PMS7003;20503;50.200;19.508;2024-03-25T04:48:13;17;12;9
34240;PMS7003;20503;50.200;19.508;2024-03-25T04:49:23;22;17;12
34240;PMS7003;20503;50.200;19.508;2024-03-25T04:50:25;22;17;12
34240;PMS7003;20503;50.200;19.508;2024-03-25T04:51:28;17;11;8
34240;PMS7003;20503;50.200;19.508;2024-03-25T04:52:30;17;11;8
34240;PMS7003;20503;50.200;19.508;2024-03-25T04:53:31;17;12;9
34240;PMS7003;20503;50.200;19.508;2024-03-25T04:54:33;19;15;11
34240;PMS7003;20503;50.200;19.508;2024-03-25T04:55:34;19;15;11
34240;PMS7003;20503;50.200;19.508;2024-03-25T04:56:36;18;11;8
34240;PMS7003;20503;50.200;19.508;2024-03-25T04:57:37;18;11;8
34240;PMS7003;20503;50.200;19.508;2024-03-25T04:58:38;13;10;7
34240;PMS7003;20503;50.200;19.508;2024-03-25T04:59:40;12;7;5
34240;PMS7003;20503;50.200;19.508;2024-03-25T05:00:41;13;9;6
34240;PMS7003;20503;50.200;19.508;2024-03-25T05:01:43;13;9;6
34240;PMS7003;20503;50.200;19.508;2024-03-25T05:02:44;9;8;6
34240;PMS7003;20503;50.200;19.508;2024-03-25T05:03:45;9;8;6
34240;PMS7003;20503;50.200;19.508;2024-03-25T05:04:47;11;8;5
34240;PMS7003;20503;50.200;19.508;2024-03-25T05:05:48;13;10;7
34240;PMS7003;20503;50.200;19.508;2024-03-25T05:06:49;13;10;7
34240;PMS7003;20503;50.200;19.508;2024-03-25T05:07:50;12;8;6
34240;PMS7003;20503;50.200;19.508;2024-03-25T05:08:58;12;11;8
34240;PMS7003;20503;50.200;19.508;2024-03-25T05:09:59;16;13;9
34240;PMS7003;20503;50.200;19.508;2024-03-25T05:11:01;16;11;8
34240;PMS7003;20503;50.200;19.508;2024-03-25T05:12:03;13;10;8
34240;PMS7003;20503;50.200;19.508;2024-03-25T05:13:04;12;9;7
34240;PMS7003;20503;50.200;19.508;2024-03-25T05:14:06;12;9;7
34240;PMS7003;20503;50.200;19.508;2024-03-25T05:15:07;14;9;6
34240;PMS7003;20503;50.200;19.508;2024-03-25T05:16:09;17;10;7
34240;PMS7003;20503;50.200;19.508;2024-03-25T05:17:11;13;10;7
34240;PMS7003;20503;50.200;19.508;2024-03-25T05:18:12;12;10;7
34240;PMS7003;20503;50.200;19.508;2024-03-25T05:19:38;15;12;8
34240;PMS7003;20503;50.200;19.508;2024-03-25T05:20:40;17;11;8
34240;PMS7003;20503;50.200;19.508;2024-03-25T05:21:41;17;11;8
34240;PMS7003;20503;50.200;19.508;2024-03-25T05:22:43;14;9;7
34240;PMS7003;20503;50.200;19.508;2024-03-25T05:23:55;13;9;7
34240;PMS7003;20503;50.200;19.508;2024-03-25T05:24:56;13;9;7
34240;PMS7003;20503;50.200;19.508;2024-03-25T05:25:58;13;9;7
34240;PMS7003;20503;50.200;19.508;2024-03-25T05:27:00;15;11;8
34240;PMS7003;20503;50.200;19.508;2024-03-25T05:28:03;11;10;8
34240;PMS7003;20503;50.200;19.508;2024-03-25T05:29:06;9;8;6
34240;PMS7003;20503;50.200;19.508;2024-03-25T05:30:09;12;9;6
34240;PMS7003;20503;50.200;19.508;2024-03-25T05:31:12;11;9;5
34240;PMS7003;20503;50.200;19.508;2024-03-25T05:32:16;11;9;5
34240;PMS7003;20503;50.200;19.508;2024-03-25T05:33:22;10;9;5
34240;PMS7003;20503;50.200;19.508;2024-03-25T05:34:24;10;9;5
34240;PMS7003;20503;50.200;19.508;2024-03-25T05:35:28;11;7;5
34240;PMS7003;20503;50.200;19.508;2024-03-25T05:36:34;9;7;5
34240;PMS7003;20503;50.200;19.508;2024-03-25T05:37:35;9;7;5
34240;PMS7003;20503;50.200;19.508;2024-03-25T05:39:01;8;6;5
34240;PMS7003;20503;50.200;19.508;2024-03-25T05:40:29;10;7;5
34240;PMS7003;20503;50.200;19.508;2024-03-25T05:41:30;7;6;4
34240;PMS7003;20503;50.200;19.508;2024-03-25T05:42:32;7;6;4
34240;PMS7003;20503;50.200;19.508;2024-03-25T05:43:33;7;6;4
34240;PMS7003;20503;50.200;19.508;2024-03-25T05:44:35;7;6;5
34240;PMS7003;20503;50.200;19.508;2024-03-25T05:45:36;9;6;5
34240;PMS7003;20503;50.200;19.508;2024-03-25T05:46:38;9;6;5
34240;PMS7003;20503;50.200;19.508;2024-03-25T05:47:40;14;7;5
34240;PMS7003;20503;50.200;19.508;2024-03-25T05:48:41;14;7;5
34240;PMS7003;20503;50.200;19.508;2024-03-25T05:49:46;12;7;5
34240;PMS7003;20503;50.200;19.508;2024-03-25T05:52:01;9;6;5
34240;PMS7003;20503;50.200;19.508;2024-03-25T05:53:03;8;6;4
34240;PMS7003;20503;50.200;19.508;2024-03-25T05:54:04;5;5;4
34240;PMS7003;20503;50.200;19.508;2024-03-25T05:55:06;1705;29;4
34240;PMS7003;20503;50.200;19.508;2024-03-25T05:56:08;8;6;4
34240;PMS7003;20503;50.200;19.508;2024-03-25T05:57:09;8;6;4
34240;PMS7003;20503;50.200;19.508;2024-03-25T05:58:11;10;8;5
34240;PMS7003;20503;50.200;19.508;2024-03-25T05:59:28;10;6;5
34240;PMS7003;20503;50.200;19.508;2024-03-25T06:00:30;9;7;4
34240;PMS7003;20503;50.200;19.508;2024-03-25T06:01:32;9;7;4
34240;PMS7003;20503;50.200;19.508;2024-03-25T06:02:37;9;6;4
34240;PMS7003;20503;50.200;19.508;2024-03-25T06:03:38;9;5;4
34240;PMS7003;20503;50.200;19.508;2024-03-25T06:04:39;9;5;4
34240;PMS7003;20503;50.200;19.508;2024-03-25T06:05:40;13;10;7
34240;PMS7003;20503;50.200;19.508;2024-03-25T06:06:42;27;21;13
34240;PMS7003;20503;50.200;19.508;2024-03-25T06:07:44;23;16;11
34240;PMS7003;20503;50.200;19.508;2024-03-25T06:09:00;21;15;12
34240;PMS7003;20503;50.200;19.508;2024-03-25T06:10:01;10;8;6
34240;PMS7003;20503;50.200;19.508;2024-03-25T06:11:19;15;12;9
34240;PMS7003;20503;50.200;19.508;2024-03-25T06:12:20;15;12;8
34240;PMS7003;20503;50.200;19.508;2024-03-25T06:13:48;23;16;12
34240;PMS7003;20503;50.200;19.508;2024-03-25T06:14:56;20;14;10
34240;PMS7003;20503;50.200;19.508;2024-03-25T06:15:57;19;15;10
34240;PMS7003;20503;50.200;19.508;2024-03-25T06:17:00;19;14;9
34240;PMS7003;20503;50.200;19.508;2024-03-25T06:18:01;19;14;9
34240;PMS7003;20503;50.200;19.508;2024-03-25T06:19:02;27;20;13
34240;PMS7003;20503;50.200;19.508;2024-03-25T06:20:15;46;32;17
34240;PMS7003;20503;50.200;19.508;2024-03-25T06:21:16;39;32;18
34240;PMS7003;20503;50.200;19.508;2024-03-25T06:22:41;37;30;18
34240;PMS7003;20503;50.200;19.508;2024-03-25T06:23:43;50;37;21
34240;PMS7003;20503;50.200;19.508;2024-03-25T06:24:44;50;37;21
34240;PMS7003;20503;50.200;19.508;2024-03-25T06:25:45;40;29;17
34240;PMS7003;20503;50.200;19.508;2024-03-25T06:26:47;29;21;14
34240;PMS7003;20503;50.200;19.508;2024-03-25T06:27:49;25;17;11
34240;PMS7003;20503;50.200;19.508;2024-03-25T06:28:50;25;17;11
34240;PMS7003;20503;50.200;19.508;2024-03-25T06:29:53;21;16;10
34240;PMS7003;20503;50.200;19.508;2024-03-25T06:31:13;29;23;13
34240;PMS7003;20503;50.200;19.508;2024-03-25T06:32:27;29;23;13
34240;PMS7003;20503;50.200;19.508;2024-03-25T06:33:39;26;20;14
34240;PMS7003;20503;50.200;19.508;2024-03-25T06:34:53;26;20;14
34240;PMS7003;20503;50.200;19.508;2024-03-25T06:35:54;24;19;13
34240;PMS7003;20503;50.200;19.508;2024-03-25T06:36:56;17;12;9
34240;PMS7003;20503;50.200;19.508;2024-03-25T06:37:58;17;13;8
34240;PMS7003;20503;50.200;19.508;2024-03-25T06:38:59;17;13;8
34240;PMS7003;20503;50.200;19.508;2024-03-25T06:40:03;16;12;7
34240;PMS7003;20503;50.200;19.508;2024-03-25T06:41:05;17;12;9
34240;PMS7003;20503;50.200;19.508;2024-03-25T06:42:06;17;12;9
34240;PMS7003;20503;50.200;19.508;2024-03-25T06:43:08;14;11;9
34240;PMS7003;20503;50.200;19.508;2024-03-25T06:44:10;14;11;9
34240;PMS7003;20503;50.200;19.508;2024-03-25T06:45:11;18;11;8
34240;PMS7003;20503;50.200;19.508;2024-03-25T06:46:16;18;11;8
34240;PMS7003;20503;50.200;19.508;2024-03-25T06:47:18;18;13;10
34240;PMS7003;20503;50.200;19.508;2024-03-25T06:48:19;18;12;8
34240;PMS7003;20503;50.200;19.508;2024-03-25T06:49:20;18;12;8
34240;PMS7003;20503;50.200;19.508;2024-03-25T06:50:21;15;11;8
34240;PMS7003;20503;50.200;19.508;2024-03-25T06:51:24;15;11;8
34240;PMS7003;20503;50.200;19.508;2024-03-25T06:52:28;14;9;8
34240;PMS7003;20503;50.200;19.508;2024-03-25T06:53:39;12;8;5
34240;PMS7003;20503;50.200;19.508;2024-03-25T06:54:40;12;8;5
34240;PMS7003;20503;50.200;19.508;2024-03-25T06:55:50;16;10;7
34240;PMS7003;20503;50.200;19.508;2024-03-25T06:56:54;16;10;7
34240;PMS7003;20503;50.200;19.508;2024-03-25T06:57:57;13;9;7